sensor_id;sensor_type;location;lat;lon;timestamp;P1;durP1;ratioP1;P2;durP2;ratioP2
64957;SDS011;51486;50.232;19.208;2022-11-06T00:01:20;14.87;;;6.20;;
64957;SDS011;51486;50.232;19.208;2022-11-06T00:03:45;11.70;;;6.50;;
64957;SDS011;51486;50.232;19.208;2022-11-06T00:06:16;16.37;;;7.30;;
64957;SDS011;51486;50.232;19.208;2022-11-06T00:09:01;18.60;;;7.17;;
64957;SDS011;51486;50.232;19.208;2022-11-06T00:11:29;14.80;;;6.33;;
64957;SDS011;51486;50.232;19.208;2022-11-06T00:13:55;18.97;;;8.00;;
64957;SDS011;51486;50.232;19.208;2022-11-06T00:16:21;18.07;;;7.90;;
64957;SDS011;51486;50.232;19.208;2022-11-06T00:18:46;22.40;;;7.07;;
64957;SDS011;51486;50.232;19.208;2022-11-06T00:21:13;15.23;;;7.23;;
64957;SDS011;51486;50.232;19.208;2022-11-06T00:23:41;23.00;;;7.40;;
64957;SDS011;51486;50.232;19.208;2022-11-06T00:26:07;21.50;;;7.40;;
64957;SDS011;51486;50.232;19.208;2022-11-06T00:28:34;19.60;;;7.63;;
64957;SDS011;51486;50.232;19.208;2022-11-06T00:31:01;17.17;;;7.77;;
64957;SDS011;51486;50.232;19.208;2022-11-06T00:33:30;17.07;;;7.37;;
64957;SDS011;51486;50.232;19.208;2022-11-06T00:35:56;16.57;;;7.70;;
64957;SDS011;51486;50.232;19.208;2022-11-06T00:38:21;19.60;;;7.33;;
64957;SDS011;51486;50.232;19.208;2022-11-06T00:40:47;16.67;;;7.80;;
64957;SDS011;51486;50.232;19.208;2022-11-06T00:43:13;27.90;;;7.73;;
64957;SDS011;51486;50.232;19.208;2022-11-06T00:45:38;16.97;;;7.67;;
64957;SDS011;51486;50.232;19.208;2022-11-06T00:48:04;19.20;;;7.77;;
64957;SDS011;51486;50.232;19.208;2022-11-06T00:50:29;17.33;;;7.90;;
64957;SDS011;51486;50.232;19.208;2022-11-06T00:52:56;13.70;;;6.97;;
64957;SDS011;51486;50.232;19.208;2022-11-06T00:55:21;16.27;;;8.43;;
64957;SDS011;51486;50.232;19.208;2022-11-06T00:57:46;19.00;;;7.50;;
64957;SDS011;51486;50.232;19.208;2022-11-06T01:00:12;20.70;;;7.13;;
64957;SDS011;51486;50.232;19.208;2022-11-06T01:02:38;13.63;;;7.57;;
64957;SDS011;51486;50.232;19.208;2022-11-06T01:05:03;18.20;;;7.13;;
64957;SDS011;51486;50.232;19.208;2022-11-06T01:07:29;18.30;;;7.80;;
64957;SDS011;51486;50.232;19.208;2022-11-06T01:09:55;20.33;;;7.37;;
64957;SDS011;51486;50.232;19.208;2022-11-06T01:12:20;14.90;;;7.43;;
64957;SDS011;51486;50.232;19.208;2022-11-06T01:14:45;15.93;;;8.10;;
64957;SDS011;51486;50.232;19.208;2022-11-06T01:17:11;15.67;;;6.83;;
64957;SDS011;51486;50.232;19.208;2022-11-06T01:19:37;11.60;;;6.67;;
64957;SDS011;51486;50.232;19.208;2022-11-06T01:22:03;18.17;;;7.00;;
64957;SDS011;51486;50.232;19.208;2022-11-06T01:24:29;15.17;;;8.03;;
64957;SDS011;51486;50.232;19.208;2022-11-06T01:26:54;10.70;;;6.63;;
64957;SDS011;51486;50.232;19.208;2022-11-06T01:29:20;14.60;;;6.83;;
64957;SDS011;51486;50.232;19.208;2022-11-06T01:31:46;19.20;;;6.90;;
64957;SDS011;51486;50.232;19.208;2022-11-06T01:34:14;12.30;;;6.07;;
64957;SDS011;51486;50.232;19.208;2022-11-06T01:36:39;17.43;;;7.10;;
64957;SDS011;51486;50.232;19.208;2022-11-06T01:39:05;17.20;;;6.70;;
64957;SDS011;51486;50.232;19.208;2022-11-06T01:41:35;13.17;;;6.50;;
64957;SDS011;51486;50.232;19.208;2022-11-06T01:47:21;16.17;;;6.33;;
64957;SDS011;51486;50.232;19.208;2022-11-06T01:49:50;21.77;;;6.57;;
64957;SDS011;51486;50.232;19.208;2022-11-06T01:52:19;14.20;;;6.40;;
64957;SDS011;51486;50.232;19.208;2022-11-06T01:54:45;16.13;;;5.97;;
64957;SDS011;51486;50.232;19.208;2022-11-06T01:57:14;13.97;;;5.80;;
64957;SDS011;51486;50.232;19.208;2022-11-06T01:59:42;9.10;;;5.70;;
64957;SDS011;51486;50.232;19.208;2022-11-06T02:02:09;14.67;;;6.83;;
64957;SDS011;51486;50.232;19.208;2022-11-06T02:04:36;10.97;;;6.03;;
64957;SDS011;51486;50.232;19.208;2022-11-06T02:07:04;11.97;;;6.70;;
64957;SDS011;51486;50.232;19.208;2022-11-06T02:09:30;13.63;;;6.60;;
64957;SDS011;51486;50.232;19.208;2022-11-06T02:14:50;11.37;;;5.23;;
64957;SDS011;51486;50.232;19.208;2022-11-06T02:29:21;12.73;;;5.27;;
64957;SDS011;51486;50.232;19.208;2022-11-06T02:31:55;24.90;;;6.20;;
64957;SDS011;51486;50.232;19.208;2022-11-06T02:34:23;13.90;;;5.50;;
64957;SDS011;51486;50.232;19.208;2022-11-06T02:36:51;25.80;;;5.93;;
64957;SDS011;51486;50.232;19.208;2022-11-06T02:39:22;13.23;;;6.13;;
64957;SDS011;51486;50.232;19.208;2022-11-06T02:41:50;11.80;;;5.47;;
64957;SDS011;51486;50.232;19.208;2022-11-06T02:44:18;12.40;;;5.53;;
64957;SDS011;51486;50.232;19.208;2022-11-06T02:46:51;16.63;;;6.37;;
64957;SDS011;51486;50.232;19.208;2022-11-06T02:52:13;14.77;;;5.57;;
64957;SDS011;51486;50.232;19.208;2022-11-06T02:54:45;18.00;;;5.53;;
64957;SDS011;51486;50.232;19.208;2022-11-06T02:57:14;15.97;;;6.27;;
64957;SDS011;51486;50.232;19.208;2022-11-06T02:59:49;12.20;;;5.77;;
64957;SDS011;51486;50.232;19.208;2022-11-06T03:02:21;18.90;;;6.33;;
64957;SDS011;51486;50.232;19.208;2022-11-06T03:04:57;14.40;;;5.60;;
64957;SDS011;51486;50.232;19.208;2022-11-06T03:07:38;13.07;;;5.20;;
64957;SDS011;51486;50.232;19.208;2022-11-06T03:10:11;14.90;;;5.60;;
64957;SDS011;51486;50.232;19.208;2022-11-06T03:12:56;15.37;;;5.37;;
64957;SDS011;51486;50.232;19.208;2022-11-06T03:15:33;9.20;;;4.93;;
64957;SDS011;51486;50.232;19.208;2022-11-06T03:18:17;9.10;;;4.53;;
64957;SDS011;51486;50.232;19.208;2022-11-06T03:23:49;14.90;;;5.60;;
64957;SDS011;51486;50.232;19.208;2022-11-06T03:26:19;11.93;;;6.30;;
64957;SDS011;51486;50.232;19.208;2022-11-06T03:31:28;10.57;;;5.73;;
64957;SDS011;51486;50.232;19.208;2022-11-06T03:33:58;19.43;;;5.83;;
64957;SDS011;51486;50.232;19.208;2022-11-06T03:36:31;12.93;;;5.03;;
64957;SDS011;51486;50.232;19.208;2022-11-06T03:39:00;28.23;;;5.30;;
64957;SDS011;51486;50.232;19.208;2022-11-06T03:44:13;18.97;;;4.90;;
64957;SDS011;51486;50.232;19.208;2022-11-06T03:46:46;9.23;;;5.03;;
64957;SDS011;51486;50.232;19.208;2022-11-06T03:49:21;22.23;;;6.10;;
64957;SDS011;51486;50.232;19.208;2022-11-06T03:51:57;12.20;;;5.30;;
64957;SDS011;51486;50.232;19.208;2022-11-06T03:54:31;8.70;;;5.10;;
64957;SDS011;51486;50.232;19.208;2022-11-06T03:57:20;6.90;;;4.40;;
64957;SDS011;51486;50.232;19.208;2022-11-06T03:59:51;14.53;;;4.50;;
64957;SDS011;51486;50.232;19.208;2022-11-06T04:02:20;8.77;;;4.43;;
64957;SDS011;51486;50.232;19.208;2022-11-06T04:04:49;9.37;;;4.53;;
64957;SDS011;51486;50.232;19.208;2022-11-06T04:07:17;10.30;;;5.43;;
64957;SDS011;51486;50.232;19.208;2022-11-06T04:09:46;8.87;;;4.40;;
64957;SDS011;51486;50.232;19.208;2022-11-06T04:12:34;11.17;;;5.53;;
64957;SDS011;51486;50.232;19.208;2022-11-06T04:15:21;7.97;;;4.37;;
64957;SDS011;51486;50.232;19.208;2022-11-06T04:17:48;8.17;;;4.77;;
64957;SDS011;51486;50.232;19.208;2022-11-06T04:20:14;9.40;;;4.43;;
64957;SDS011;51486;50.232;19.208;2022-11-06T04:23:08;13.67;;;4.63;;
64957;SDS011;51486;50.232;19.208;2022-11-06T04:25:49;11.33;;;5.23;;
64957;SDS011;51486;50.232;19.208;2022-11-06T04:28:44;13.67;;;4.63;;
64957;SDS011;51486;50.232;19.208;2022-11-06T04:31:24;9.33;;;5.07;;
64957;SDS011;51486;50.232;19.208;2022-11-06T04:33:56;10.43;;;5.13;;
64957;SDS011;51486;50.232;19.208;2022-11-06T04:39:29;9.03;;;4.23;;
64957;SDS011;51486;50.232;19.208;2022-11-06T04:44:51;6.20;;;3.90;;
64957;SDS011;51486;50.232;19.208;2022-11-06T04:47:22;7.63;;;4.03;;
64957;SDS011;51486;50.232;19.208;2022-11-06T04:49:49;13.97;;;5.17;;
64957;SDS011;51486;50.232;19.208;2022-11-06T04:52:18;11.97;;;5.03;;
64957;SDS011;51486;50.232;19.208;2022-11-06T04:54:50;16.20;;;4.80;;
64957;SDS011;51486;50.232;19.208;2022-11-06T04:57:17;10.30;;;4.37;;
64957;SDS011;51486;50.232;19.208;2022-11-06T04:59:42;9.00;;;4.50;;
64957;SDS011;51486;50.232;19.208;2022-11-06T05:02:08;11.97;;;4.90;;
64957;SDS011;51486;50.232;19.208;2022-11-06T05:04:34;12.87;;;4.80;;
64957;SDS011;51486;50.232;19.208;2022-11-06T05:06:59;10.53;;;4.63;;
64957;SDS011;51486;50.232;19.208;2022-11-06T05:09:25;17.53;;;5.63;;
64957;SDS011;51486;50.232;19.208;2022-11-06T05:11:50;7.17;;;4.67;;
64957;SDS011;51486;50.232;19.208;2022-11-06T05:14:16;13.17;;;5.07;;
64957;SDS011;51486;50.232;19.208;2022-11-06T05:16:41;8.20;;;4.23;;
64957;SDS011;51486;50.232;19.208;2022-11-06T05:19:07;10.90;;;4.60;;
64957;SDS011;51486;50.232;19.208;2022-11-06T05:21:32;9.27;;;4.33;;
64957;SDS011;51486;50.232;19.208;2022-11-06T05:24:16;8.70;;;4.27;;
64957;SDS011;51486;50.232;19.208;2022-11-06T05:26:42;23.73;;;5.63;;
64957;SDS011;51486;50.232;19.208;2022-11-06T05:29:07;7.27;;;3.60;;
64957;SDS011;51486;50.232;19.208;2022-11-06T05:31:33;17.87;;;5.40;;
64957;SDS011;51486;50.232;19.208;2022-11-06T05:33:58;13.83;;;6.03;;
64957;SDS011;51486;50.232;19.208;2022-11-06T05:36:24;15.63;;;8.10;;
64957;SDS011;51486;50.232;19.208;2022-11-06T05:38:49;18.70;;;9.30;;
64957;SDS011;51486;50.232;19.208;2022-11-06T05:41:15;24.77;;;8.80;;
64957;SDS011;51486;50.232;19.208;2022-11-06T05:43:40;25.30;;;10.43;;
64957;SDS011;51486;50.232;19.208;2022-11-06T05:46:06;19.77;;;10.77;;
64957;SDS011;51486;50.232;19.208;2022-11-06T05:48:31;22.83;;;9.93;;
64957;SDS011;51486;50.232;19.208;2022-11-06T05:51:00;31.80;;;11.33;;
64957;SDS011;51486;50.232;19.208;2022-11-06T05:53:28;27.47;;;8.77;;
64957;SDS011;51486;50.232;19.208;2022-11-06T05:55:54;19.33;;;9.53;;
64957;SDS011;51486;50.232;19.208;2022-11-06T05:58:19;19.87;;;9.67;;
64957;SDS011;51486;50.232;19.208;2022-11-06T06:00:45;24.63;;;10.70;;
64957;SDS011;51486;50.232;19.208;2022-11-06T06:03:10;28.43;;;13.37;;
64957;SDS011;51486;50.232;19.208;2022-11-06T06:05:36;30.50;;;12.33;;
64957;SDS011;51486;50.232;19.208;2022-11-06T06:08:01;27.90;;;12.50;;
64957;SDS011;51486;50.232;19.208;2022-11-06T06:10:27;28.80;;;11.93;;
64957;SDS011;51486;50.232;19.208;2022-11-06T06:12:52;24.57;;;9.47;;
64957;SDS011;51486;50.232;19.208;2022-11-06T06:15:17;30.13;;;11.57;;
64957;SDS011;51486;50.232;19.208;2022-11-06T06:17:43;35.03;;;12.13;;
64957;SDS011;51486;50.232;19.208;2022-11-06T06:20:09;42.43;;;13.37;;
64957;SDS011;51486;50.232;19.208;2022-11-06T06:22:35;45.60;;;16.67;;
64957;SDS011;51486;50.232;19.208;2022-11-06T06:25:01;35.83;;;13.87;;
64957;SDS011;51486;50.232;19.208;2022-11-06T06:27:26;30.93;;;14.13;;
64957;SDS011;51486;50.232;19.208;2022-11-06T06:29:52;33.83;;;14.60;;
64957;SDS011;51486;50.232;19.208;2022-11-06T06:32:18;33.07;;;14.47;;
64957;SDS011;51486;50.232;19.208;2022-11-06T06:34:43;42.27;;;15.40;;
64957;SDS011;51486;50.232;19.208;2022-11-06T06:37:09;32.47;;;14.13;;
64957;SDS011;51486;50.232;19.208;2022-11-06T06:39:34;39.17;;;15.37;;
64957;SDS011;51486;50.232;19.208;2022-11-06T06:42:00;31.90;;;14.80;;
64957;SDS011;51486;50.232;19.208;2022-11-06T06:44:25;39.97;;;16.77;;
64957;SDS011;51486;50.232;19.208;2022-11-06T06:46:50;37.50;;;16.87;;
64957;SDS011;51486;50.232;19.208;2022-11-06T06:49:16;34.73;;;16.70;;
64957;SDS011;51486;50.232;19.208;2022-11-06T06:51:41;46.33;;;17.73;;
64957;SDS011;51486;50.232;19.208;2022-11-06T06:54:06;64.20;;;21.00;;
64957;SDS011;51486;50.232;19.208;2022-11-06T06:56:32;50.50;;;21.80;;
64957;SDS011;51486;50.232;19.208;2022-11-06T06:58:57;47.07;;;19.37;;
64957;SDS011;51486;50.232;19.208;2022-11-06T07:01:23;40.90;;;17.43;;
64957;SDS011;51486;50.232;19.208;2022-11-06T07:03:48;40.87;;;14.03;;
64957;SDS011;51486;50.232;19.208;2022-11-06T07:06:14;24.80;;;10.43;;
64957;SDS011;51486;50.232;19.208;2022-11-06T07:08:43;22.03;;;9.90;;
64957;SDS011;51486;50.232;19.208;2022-11-06T07:11:09;27.53;;;9.43;;
64957;SDS011;51486;50.232;19.208;2022-11-06T07:13:35;37.83;;;9.47;;
64957;SDS011;51486;50.232;19.208;2022-11-06T07:16:04;18.00;;;8.87;;
64957;SDS011;51486;50.232;19.208;2022-11-06T07:18:30;23.40;;;10.30;;
64957;SDS011;51486;50.232;19.208;2022-11-06T07:20:56;25.73;;;8.93;;
64957;SDS011;51486;50.232;19.208;2022-11-06T07:23:21;21.47;;;10.20;;
64957;SDS011;51486;50.232;19.208;2022-11-06T07:25:53;17.83;;;9.77;;
64957;SDS011;51486;50.232;19.208;2022-11-06T07:28:19;18.23;;;8.37;;
64957;SDS011;51486;50.232;19.208;2022-11-06T07:30:44;27.43;;;8.87;;
64957;SDS011;51486;50.232;19.208;2022-11-06T07:33:10;20.57;;;7.70;;
64957;SDS011;51486;50.232;19.208;2022-11-06T07:35:35;15.10;;;7.43;;
64957;SDS011;51486;50.232;19.208;2022-11-06T07:38:04;20.73;;;8.10;;
64957;SDS011;51486;50.232;19.208;2022-11-06T07:40:31;17.93;;;7.73;;
64957;SDS011;51486;50.232;19.208;2022-11-06T07:43:04;18.90;;;7.00;;
64957;SDS011;51486;50.232;19.208;2022-11-06T07:45:30;18.23;;;8.43;;
64957;SDS011;51486;50.232;19.208;2022-11-06T07:47:56;11.03;;;6.50;;
64957;SDS011;51486;50.232;19.208;2022-11-06T07:50:21;11.70;;;6.30;;
64957;SDS011;51486;50.232;19.208;2022-11-06T07:52:47;14.30;;;6.50;;
64957;SDS011;51486;50.232;19.208;2022-11-06T07:55:12;14.27;;;6.80;;
64957;SDS011;51486;50.232;19.208;2022-11-06T07:57:38;18.53;;;6.23;;
64957;SDS011;51486;50.232;19.208;2022-11-06T08:00:04;12.93;;;6.37;;
64957;SDS011;51486;50.232;19.208;2022-11-06T08:02:30;12.17;;;6.17;;
64957;SDS011;51486;50.232;19.208;2022-11-06T08:04:56;16.50;;;6.47;;
64957;SDS011;51486;50.232;19.208;2022-11-06T08:07:21;9.20;;;5.07;;
64957;SDS011;51486;50.232;19.208;2022-11-06T08:09:46;8.50;;;4.57;;
64957;SDS011;51486;50.232;19.208;2022-11-06T08:12:11;13.10;;;5.40;;
64957;SDS011;51486;50.232;19.208;2022-11-06T08:14:38;14.63;;;6.37;;
64957;SDS011;51486;50.232;19.208;2022-11-06T08:17:04;15.87;;;5.60;;
64957;SDS011;51486;50.232;19.208;2022-11-06T08:19:29;20.30;;;6.03;;
64957;SDS011;51486;50.232;19.208;2022-11-06T08:21:55;16.20;;;5.93;;
64957;SDS011;51486;50.232;19.208;2022-11-06T08:24:21;18.63;;;5.97;;
64957;SDS011;51486;50.232;19.208;2022-11-06T08:26:46;10.67;;;5.10;;
64957;SDS011;51486;50.232;19.208;2022-11-06T08:29:11;13.30;;;5.67;;
64957;SDS011;51486;50.232;19.208;2022-11-06T08:31:37;12.10;;;5.40;;
64957;SDS011;51486;50.232;19.208;2022-11-06T08:34:03;20.03;;;5.00;;
64957;SDS011;51486;50.232;19.208;2022-11-06T08:36:28;11.60;;;4.30;;
64957;SDS011;51486;50.232;19.208;2022-11-06T08:38:53;9.83;;;4.10;;
64957;SDS011;51486;50.232;19.208;2022-11-06T08:41:20;8.40;;;4.20;;
64957;SDS011;51486;50.232;19.208;2022-11-06T08:43:49;18.00;;;4.60;;
64957;SDS011;51486;50.232;19.208;2022-11-06T08:46:15;11.07;;;4.53;;
64957;SDS011;51486;50.232;19.208;2022-11-06T08:48:41;6.50;;;4.03;;
64957;SDS011;51486;50.232;19.208;2022-11-06T08:51:06;19.27;;;6.00;;
64957;SDS011;51486;50.232;19.208;2022-11-06T08:53:32;17.90;;;6.13;;
64957;SDS011;51486;50.232;19.208;2022-11-06T08:55:57;11.30;;;4.80;;
64957;SDS011;51486;50.232;19.208;2022-11-06T08:58:23;7.87;;;3.87;;
64957;SDS011;51486;50.232;19.208;2022-11-06T09:00:48;8.30;;;3.93;;
64957;SDS011;51486;50.232;19.208;2022-11-06T09:03:14;5.90;;;3.23;;
64957;SDS011;51486;50.232;19.208;2022-11-06T09:05:42;8.63;;;3.00;;
64957;SDS011;51486;50.232;19.208;2022-11-06T09:08:08;6.50;;;3.60;;
64957;SDS011;51486;50.232;19.208;2022-11-06T09:10:35;7.70;;;4.03;;
64957;SDS011;51486;50.232;19.208;2022-11-06T09:13:01;13.57;;;4.13;;
64957;SDS011;51486;50.232;19.208;2022-11-06T09:15:27;8.23;;;3.57;;
64957;SDS011;51486;50.232;19.208;2022-11-06T09:17:52;7.57;;;3.70;;
64957;SDS011;51486;50.232;19.208;2022-11-06T09:20:19;13.83;;;5.17;;
64957;SDS011;51486;50.232;19.208;2022-11-06T09:22:45;13.47;;;5.80;;
64957;SDS011;51486;50.232;19.208;2022-11-06T09:25:11;13.80;;;6.70;;
64957;SDS011;51486;50.232;19.208;2022-11-06T09:27:44;15.33;;;7.77;;
64957;SDS011;51486;50.232;19.208;2022-11-06T09:30:12;17.97;;;8.57;;
64957;SDS011;51486;50.232;19.208;2022-11-06T09:32:43;18.73;;;8.37;;
64957;SDS011;51486;50.232;19.208;2022-11-06T09:35:10;16.87;;;6.67;;
64957;SDS011;51486;50.232;19.208;2022-11-06T09:37:36;25.30;;;6.43;;
64957;SDS011;51486;50.232;19.208;2022-11-06T09:40:01;12.60;;;5.60;;
64957;SDS011;51486;50.232;19.208;2022-11-06T09:42:34;12.60;;;6.30;;
64957;SDS011;51486;50.232;19.208;2022-11-06T09:45:18;12.70;;;5.30;;
64957;SDS011;51486;50.232;19.208;2022-11-06T09:48:10;10.87;;;5.33;;
64957;SDS011;51486;50.232;19.208;2022-11-06T09:50:41;18.53;;;7.50;;
64957;SDS011;51486;50.232;19.208;2022-11-06T09:53:16;20.03;;;8.23;;
64957;SDS011;51486;50.232;19.208;2022-11-06T09:55:49;14.63;;;6.10;;
64957;SDS011;51486;50.232;19.208;2022-11-06T10:01:18;15.00;;;6.10;;
64957;SDS011;51486;50.232;19.208;2022-11-06T10:03:49;16.13;;;6.13;;
64957;SDS011;51486;50.232;19.208;2022-11-06T10:06:19;14.40;;;5.90;;
64957;SDS011;51486;50.232;19.208;2022-11-06T10:08:46;10.70;;;5.93;;
64957;SDS011;51486;50.232;19.208;2022-11-06T10:16:26;9.83;;;5.30;;
64957;SDS011;51486;50.232;19.208;2022-11-06T10:27:17;8.00;;;4.33;;
64957;SDS011;51486;50.232;19.208;2022-11-06T10:32:33;12.43;;;2.53;;
64957;SDS011;51486;50.232;19.208;2022-11-06T10:37:53;4.10;;;2.27;;
64957;SDS011;51486;50.232;19.208;2022-11-06T10:40:24;5.50;;;2.33;;
64957;SDS011;51486;50.232;19.208;2022-11-06T10:45:58;3.47;;;2.10;;
64957;SDS011;51486;50.232;19.208;2022-11-06T10:48:48;4.33;;;2.33;;
64957;SDS011;51486;50.232;19.208;2022-11-06T10:51:41;4.23;;;2.07;;
64957;SDS011;51486;50.232;19.208;2022-11-06T10:59:43;8.60;;;3.33;;
64957;SDS011;51486;50.232;19.208;2022-11-06T11:02:22;10.07;;;4.23;;
64957;SDS011;51486;50.232;19.208;2022-11-06T11:04:50;27.43;;;14.10;;
64957;SDS011;51486;50.232;19.208;2022-11-06T11:07:15;7.97;;;4.47;;
64957;SDS011;51486;50.232;19.208;2022-11-06T11:09:41;3.20;;;2.47;;
64957;SDS011;51486;50.232;19.208;2022-11-06T11:12:26;6.23;;;2.10;;
64957;SDS011;51486;50.232;19.208;2022-11-06T11:15:09;2.93;;;2.00;;
64957;SDS011;51486;50.232;19.208;2022-11-06T11:17:40;2.40;;;1.30;;
64957;SDS011;51486;50.232;19.208;2022-11-06T11:20:27;4.87;;;1.97;;
64957;SDS011;51486;50.232;19.208;2022-11-06T11:23:28;2.77;;;1.70;;
64957;SDS011;51486;50.232;19.208;2022-11-06T11:25:52;3.30;;;2.03;;
64957;SDS011;51486;50.232;19.208;2022-11-06T11:28:32;8.37;;;2.10;;
64957;SDS011;51486;50.232;19.208;2022-11-06T11:31:09;4.20;;;1.47;;
64957;SDS011;51486;50.232;19.208;2022-11-06T11:33:37;4.97;;;2.13;;
64957;SDS011;51486;50.232;19.208;2022-11-06T11:36:05;6.73;;;2.63;;
64957;SDS011;51486;50.232;19.208;2022-11-06T11:38:36;12.70;;;4.60;;
64957;SDS011;51486;50.232;19.208;2022-11-06T11:41:04;4.80;;;2.10;;
64957;SDS011;51486;50.232;19.208;2022-11-06T11:43:36;4.93;;;1.63;;
64957;SDS011;51486;50.232;19.208;2022-11-06T11:48:40;5.10;;;1.60;;
64957;SDS011;51486;50.232;19.208;2022-11-06T11:51:19;5.57;;;2.10;;
64957;SDS011;51486;50.232;19.208;2022-11-06T11:54:00;4.60;;;1.30;;
64957;SDS011;51486;50.232;19.208;2022-11-06T11:56:29;1.10;;;1.00;;
64957;SDS011;51486;50.232;19.208;2022-11-06T11:58:55;1.53;;;1.20;;
64957;SDS011;51486;50.232;19.208;2022-11-06T12:01:35;7.87;;;1.73;;
64957;SDS011;51486;50.232;19.208;2022-11-06T12:04:07;8.37;;;2.43;;
64957;SDS011;51486;50.232;19.208;2022-11-06T12:06:49;2.97;;;1.83;;
64957;SDS011;51486;50.232;19.208;2022-11-06T12:09:41;5.90;;;2.77;;
64957;SDS011;51486;50.232;19.208;2022-11-06T12:12:25;4.43;;;2.27;;
64957;SDS011;51486;50.232;19.208;2022-11-06T12:15:31;8.07;;;2.40;;
64957;SDS011;51486;50.232;19.208;2022-11-06T12:20:23;3.57;;;2.17;;
64957;SDS011;51486;50.232;19.208;2022-11-06T12:22:52;3.87;;;1.77;;
64957;SDS011;51486;50.232;19.208;2022-11-06T12:25:21;3.23;;;1.53;;
64957;SDS011;51486;50.232;19.208;2022-11-06T12:27:50;3.43;;;1.83;;
64957;SDS011;51486;50.232;19.208;2022-11-06T12:30:19;2.07;;;1.57;;
64957;SDS011;51486;50.232;19.208;2022-11-06T12:38:43;8.17;;;2.10;;
64957;SDS011;51486;50.232;19.208;2022-11-06T12:43:47;4.30;;;1.97;;
64957;SDS011;51486;50.232;19.208;2022-11-06T12:48:59;12.57;;;2.77;;
64957;SDS011;51486;50.232;19.208;2022-11-06T13:00:16;17.67;;;3.90;;
64957;SDS011;51486;50.232;19.208;2022-11-06T13:11:15;4.93;;;2.47;;
64957;SDS011;51486;50.232;19.208;2022-11-06T13:16:37;8.93;;;2.60;;
64957;SDS011;51486;50.232;19.208;2022-11-06T13:19:24;3.27;;;2.03;;
64957;SDS011;51486;50.232;19.208;2022-11-06T13:22:09;5.67;;;2.57;;
64957;SDS011;51486;50.232;19.208;2022-11-06T13:24:43;18.20;;;6.53;;
64957;SDS011;51486;50.232;19.208;2022-11-06T13:27:26;13.43;;;4.93;;
64957;SDS011;51486;50.232;19.208;2022-11-06T13:30:19;27.73;;;10.07;;
64957;SDS011;51486;50.232;19.208;2022-11-06T13:35:26;24.90;;;9.60;;
64957;SDS011;51486;50.232;19.208;2022-11-06T13:37:52;11.00;;;4.67;;
64957;SDS011;51486;50.232;19.208;2022-11-06T13:49:13;15.73;;;7.43;;
64957;SDS011;51486;50.232;19.208;2022-11-06T13:54:05;15.93;;;6.00;;
64957;SDS011;51486;50.232;19.208;2022-11-06T13:57:00;18.53;;;6.23;;
64957;SDS011;51486;50.232;19.208;2022-11-06T14:00:23;14.57;;;5.30;;
64957;SDS011;51486;50.232;19.208;2022-11-06T14:02:37;10.13;;;5.83;;
64957;SDS011;51486;50.232;19.208;2022-11-06T14:08:03;13.17;;;6.97;;
64957;SDS011;51486;50.232;19.208;2022-11-06T14:10:35;10.30;;;4.60;;
64957;SDS011;51486;50.232;19.208;2022-11-06T14:13:03;14.67;;;6.87;;
64957;SDS011;51486;50.232;19.208;2022-11-06T14:15:31;106.73;;;33.03;;
64957;SDS011;51486;50.232;19.208;2022-11-06T14:18:01;64.27;;;21.53;;
64957;SDS011;51486;50.232;19.208;2022-11-06T14:20:32;57.70;;;22.30;;
64957;SDS011;51486;50.232;19.208;2022-11-06T14:26:03;62.63;;;19.60;;
64957;SDS011;51486;50.232;19.208;2022-11-06T14:28:35;44.30;;;16.07;;
64957;SDS011;51486;50.232;19.208;2022-11-06T14:31:02;50.37;;;20.43;;
64957;SDS011;51486;50.232;19.208;2022-11-06T14:38:50;55.53;;;21.30;;
64957;SDS011;51486;50.232;19.208;2022-11-06T14:43:59;40.23;;;18.67;;
64957;SDS011;51486;50.232;19.208;2022-11-06T14:46:28;42.73;;;16.33;;
64957;SDS011;51486;50.232;19.208;2022-11-06T14:48:54;40.17;;;13.13;;
64957;SDS011;51486;50.232;19.208;2022-11-06T14:51:29;28.67;;;11.50;;
64957;SDS011;51486;50.232;19.208;2022-11-06T14:53:55;89.50;;;28.83;;
64957;SDS011;51486;50.232;19.208;2022-11-06T14:56:30;36.97;;;14.60;;
64957;SDS011;51486;50.232;19.208;2022-11-06T14:58:59;28.60;;;13.13;;
64957;SDS011;51486;50.232;19.208;2022-11-06T15:01:28;22.67;;;9.67;;
64957;SDS011;51486;50.232;19.208;2022-11-06T15:04:05;23.30;;;8.97;;
64957;SDS011;51486;50.232;19.208;2022-11-06T15:06:42;24.90;;;8.10;;
64957;SDS011;51486;50.232;19.208;2022-11-06T15:11:56;20.80;;;7.30;;
64957;SDS011;51486;50.232;19.208;2022-11-06T15:17:10;20.07;;;9.73;;
64957;SDS011;51486;50.232;19.208;2022-11-06T15:19:39;41.40;;;13.93;;
64957;SDS011;51486;50.232;19.208;2022-11-06T15:27:33;31.27;;;12.97;;
64957;SDS011;51486;50.232;19.208;2022-11-06T15:30:05;22.27;;;10.93;;
64957;SDS011;51486;50.232;19.208;2022-11-06T15:32:34;17.00;;;8.07;;
64957;SDS011;51486;50.232;19.208;2022-11-06T15:35:07;18.80;;;7.67;;
64957;SDS011;51486;50.232;19.208;2022-11-06T15:37:39;22.57;;;7.37;;
64957;SDS011;51486;50.232;19.208;2022-11-06T15:40:24;14.00;;;6.97;;
64957;SDS011;51486;50.232;19.208;2022-11-06T15:42:53;68.30;;;18.33;;
64957;SDS011;51486;50.232;19.208;2022-11-06T15:45:21;26.07;;;11.97;;
64957;SDS011;51486;50.232;19.208;2022-11-06T15:47:58;22.60;;;8.53;;
64957;SDS011;51486;50.232;19.208;2022-11-06T15:50:35;21.23;;;7.97;;
64957;SDS011;51486;50.232;19.208;2022-11-06T15:53:08;48.30;;;12.87;;
64957;SDS011;51486;50.232;19.208;2022-11-06T15:58:32;13.60;;;7.53;;
64957;SDS011;51486;50.232;19.208;2022-11-06T16:00:59;30.30;;;11.67;;
64957;SDS011;51486;50.232;19.208;2022-11-06T16:03:27;24.97;;;10.90;;
64957;SDS011;51486;50.232;19.208;2022-11-06T16:05:56;18.43;;;8.87;;
64957;SDS011;51486;50.232;19.208;2022-11-06T16:08:25;19.27;;;9.30;;
64957;SDS011;51486;50.232;19.208;2022-11-06T16:10:53;26.10;;;8.43;;
64957;SDS011;51486;50.232;19.208;2022-11-06T16:13:19;22.80;;;8.30;;
64957;SDS011;51486;50.232;19.208;2022-11-06T16:15:50;22.03;;;8.30;;
64957;SDS011;51486;50.232;19.208;2022-11-06T16:20:47;20.13;;;9.13;;
64957;SDS011;51486;50.232;19.208;2022-11-06T16:23:18;21.20;;;9.30;;
64957;SDS011;51486;50.232;19.208;2022-11-06T16:25:47;42.13;;;15.33;;
64957;SDS011;51486;50.232;19.208;2022-11-06T16:28:13;37.23;;;14.47;;
64957;SDS011;51486;50.232;19.208;2022-11-06T16:30:40;40.67;;;14.80;;
64957;SDS011;51486;50.232;19.208;2022-11-06T16:33:16;33.93;;;14.03;;
64957;SDS011;51486;50.232;19.208;2022-11-06T16:35:44;39.03;;;14.53;;
64957;SDS011;51486;50.232;19.208;2022-11-06T16:40:49;25.50;;;12.30;;
64957;SDS011;51486;50.232;19.208;2022-11-06T16:43:16;28.30;;;12.07;;
64957;SDS011;51486;50.232;19.208;2022-11-06T16:45:51;38.87;;;12.83;;
64957;SDS011;51486;50.232;19.208;2022-11-06T16:51:27;32.87;;;16.47;;
64957;SDS011;51486;50.232;19.208;2022-11-06T16:53:58;26.73;;;13.47;;
64957;SDS011;51486;50.232;19.208;2022-11-06T16:56:26;43.90;;;20.40;;
64957;SDS011;51486;50.232;19.208;2022-11-06T16:58:57;37.90;;;17.93;;
64957;SDS011;51486;50.232;19.208;2022-11-06T17:01:26;33.60;;;15.53;;
64957;SDS011;51486;50.232;19.208;2022-11-06T17:04:00;26.50;;;13.00;;
64957;SDS011;51486;50.232;19.208;2022-11-06T17:06:28;24.83;;;12.07;;
64957;SDS011;51486;50.232;19.208;2022-11-06T17:08:59;31.90;;;11.30;;